createdAt,value
2018-08-27T00:00:25.827Z,25.18
2018-08-27T00:01:49.296Z,23.46
2018-08-27T00:03:13.207Z,20.88
2018-08-27T00:04:14.040Z,22.41
2018-08-27T00:05:13.938Z,22.69
2018-08-27T00:06:13.616Z,21.93
2018-08-27T00:07:13.643Z,19.74
2018-08-27T00:08:37.630Z,21.74
2018-08-27T00:10:02.499Z,26.03
2018-08-27T00:11:02.295Z,26.32
2018-08-27T00:12:26.551Z,26.03
2018-08-27T00:13:27.602Z,25.18
2018-08-27T00:14:27.404Z,25.37
2018-08-27T00:15:27.344Z,23.27
2018-08-27T00:16:27.066Z,22.22
2018-08-27T00:17:48.295Z,24.13
2018-08-27T00:18:49.225Z,23.08
2018-08-27T00:20:35.684Z,26.22
2018-08-27T00:21:36.360Z,26.79
2018-08-27T00:22:35.951Z,25.27
2018-08-27T00:23:35.501Z,25.94
2018-08-27T00:24:36.391Z,26.61
2018-08-27T00:25:36.241Z,30.04
2018-08-27T00:26:36.440Z,30.71
2018-08-27T00:27:36.162Z,29.47
2018-08-27T00:29:21.447Z,31.66
2018-08-27T00:30:21.307Z,28.32
2018-08-27T00:31:22.312Z,34.23
2018-08-27T00:32:22.105Z,37.29
2018-08-27T00:33:21.792Z,43.77
2018-08-27T00:34:21.458Z,39.48
2018-08-27T00:35:22.005Z,38.24
2018-08-27T00:37:07.120Z,35.66
2018-08-27T00:38:08.132Z,36.33
2018-08-27T00:39:31.314Z,35.57
2018-08-27T00:40:32.224Z,44.82
2018-08-27T00:41:32.157Z,42.55
2018-08-27T00:43:18.923Z,50.95
2018-08-27T00:45:06.163Z,48.37
2018-08-27T00:46:07.127Z,62.78
2018-08-27T00:47:06.734Z,60.97
2018-08-27T00:48:06.399Z,60.58
2018-08-27T00:49:06.934Z,59.34
2018-08-27T00:50:07.050Z,58.20
2018-08-27T00:51:28.187Z,66.69
2018-08-27T00:52:29.015Z,67.07
2018-08-27T00:53:28.557Z,63.26
2018-08-27T00:54:28.055Z,63.54
2018-08-27T00:55:28.728Z,66.50
2018-08-27T00:56:49.590Z,74.32
2018-08-27T00:57:50.026Z,69.56
2018-08-27T00:58:49.652Z,66.02
2018-08-27T00:59:50.262Z,68.03
2018-08-27T01:00:49.701Z,65.07
2018-08-27T01:01:50.347Z,73.37
2018-08-27T01:02:49.879Z,76.52
2018-08-27T01:06:09.028Z,77.70
2018-08-27T01:07:10.106Z,77.61
2018-08-27T01:08:32.876Z,88.97
2018-08-27T01:09:33.443Z,81.14
2018-08-27T01:11:30.841Z,78.85
2018-08-27T01:12:21.774Z,85.34
2018-08-27T01:13:20.479Z,86.01
2018-08-27T01:14:20.204Z,87.15
2018-08-27T01:15:43.332Z,93.36
2018-08-27T01:16:44.054Z,86.10
2018-08-27T01:17:44.034Z,91.26
2018-08-27T01:18:43.379Z,91.45
2018-08-27T01:19:44.043Z,96.56
2018-08-27T01:21:30.670Z,94.36
2018-08-27T01:22:31.266Z,96.84
2018-08-27T01:23:31.091Z,93.41
2018-08-27T01:24:31.111Z,95.12
2018-08-27T01:25:30.779Z,93.21
2018-08-27T01:26:31.561Z,94.74
2018-08-27T01:27:31.433Z,99.43
2018-08-27T01:28:31.499Z,96.75
2018-08-27T01:29:31.426Z,96.56
2018-08-27T01:31:18.014Z,99.99
2018-08-27T01:32:18.733Z,99.99
2018-08-27T01:33:18.536Z,99.99
2018-08-27T01:34:18.306Z,98.52
2018-08-27T01:36:05.546Z,99.99
2018-08-27T01:37:06.074Z,99.99
2018-08-27T01:38:05.750Z,99.99
2018-08-27T01:39:06.361Z,99.99
2018-08-27T01:40:05.965Z,99.99
2018-08-27T01:41:06.033Z,99.99
2018-08-27T01:42:05.679Z,99.99
2018-08-27T01:43:06.521Z,99.99
2018-08-27T01:44:06.293Z,99.99
2018-08-27T01:45:06.091Z,99.99
2018-08-27T01:46:05.733Z,99.99
2018-08-27T01:47:29.730Z,99.99
2018-08-27T01:48:54.164Z,99.99
2018-08-27T01:49:54.856Z,99.99
2018-08-27T01:50:54.470Z,99.99
2018-08-27T01:51:53.948Z,99.99
2018-08-27T01:52:54.640Z,99.99
2018-08-27T01:54:18.009Z,99.99
2018-08-27T01:55:17.631Z,99.99
2018-08-27T01:56:39.648Z,99.99
2018-08-27T01:57:40.196Z,99.99
2018-08-27T01:58:39.777Z,99.99
2018-08-27T01:59:40.581Z,99.99
2018-08-27T02:00:40.143Z,99.99
2018-08-27T02:02:01.356Z,99.99
2018-08-27T02:03:23.919Z,99.99
2018-08-27T02:04:24.710Z,99.99
2018-08-27T02:05:24.755Z,99.99
2018-08-27T02:06:24.251Z,99.99
2018-08-27T02:07:23.966Z,99.99
2018-08-27T02:08:24.787Z,99.99
2018-08-27T02:09:24.393Z,99.99
2018-08-27T02:10:24.480Z,99.99
2018-08-27T02:11:24.123Z,99.99
2018-08-27T02:12:23.808Z,99.99
2018-08-27T02:14:07.437Z,99.99
2018-08-27T02:15:07.902Z,99.99
2018-08-27T02:16:07.602Z,99.99
2018-08-27T02:17:08.329Z,99.99
2018-08-27T02:18:07.994Z,99.99
2018-08-27T02:19:07.687Z,99.99
2018-08-27T02:20:08.520Z,99.99
2018-08-27T02:21:08.301Z,99.99
2018-08-27T02:22:07.885Z,99.99
2018-08-27T02:23:08.539Z,99.99
2018-08-27T02:24:08.069Z,99.99
2018-08-27T02:25:07.813Z,99.99
2018-08-27T02:26:08.618Z,99.99
2018-08-27T02:27:08.313Z,99.99
2018-08-27T02:28:07.889Z,99.99
2018-08-27T02:29:07.487Z,99.99
2018-08-27T02:30:07.847Z,99.99
2018-08-27T02:31:32.094Z,99.99
2018-08-27T02:32:32.677Z,99.99
2018-08-27T02:33:32.326Z,99.99
2018-08-27T02:34:32.959Z,99.99
2018-08-27T02:35:32.657Z,99.99
2018-08-27T02:36:32.421Z,99.99
2018-08-27T02:37:33.046Z,99.99
2018-08-27T02:38:32.823Z,99.99
2018-08-27T02:39:53.815Z,99.99
2018-08-27T02:41:15.897Z,99.99
2018-08-27T02:42:16.538Z,99.99
2018-08-27T02:43:16.044Z,99.99
2018-08-27T02:44:16.529Z,99.99
2018-08-27T02:45:16.488Z,99.99
2018-08-27T02:46:15.996Z,99.99
2018-08-27T02:47:16.586Z,99.99
2018-08-27T02:48:16.388Z,99.99
2018-08-27T02:49:16.129Z,99.99
2018-08-27T02:50:16.638Z,99.99
2018-08-27T02:51:16.324Z,99.99
2018-08-27T02:52:16.008Z,99.99
2018-08-27T02:53:16.456Z,99.99
2018-08-27T02:54:16.310Z,99.99
2018-08-27T02:55:37.472Z,99.99
2018-08-27T02:56:38.026Z,99.99
2018-08-27T02:57:37.696Z,99.99
2018-08-27T02:58:59.014Z,99.99
2018-08-27T03:00:21.056Z,99.99
2018-08-27T03:01:43.116Z,99.99
2018-08-27T03:02:43.832Z,99.99
2018-08-27T03:03:43.363Z,99.99
2018-08-27T03:05:05.217Z,99.99
2018-08-27T03:06:06.075Z,99.99
2018-08-27T03:07:05.829Z,99.99
2018-08-27T03:08:05.558Z,99.99
2018-08-27T03:09:05.089Z,99.99
2018-08-27T03:10:27.423Z,99.99
2018-08-27T03:11:28.365Z,99.99
2018-08-27T03:12:27.840Z,99.99
2018-08-27T03:13:27.588Z,99.99
2018-08-27T03:14:28.540Z,99.99
2018-08-27T03:15:49.762Z,99.99
2018-08-27T03:16:50.217Z,99.99
2018-08-27T03:17:49.847Z,99.99
2018-08-27T03:18:50.600Z,99.99
2018-08-27T03:19:50.159Z,99.99
2018-08-27T03:20:50.617Z,99.99
2018-08-27T03:21:50.107Z,99.99
2018-08-27T03:22:50.504Z,99.99
2018-08-27T03:24:11.493Z,99.99
2018-08-27T03:25:33.267Z,99.99
2018-08-27T03:26:33.770Z,99.99
2018-08-27T03:27:34.277Z,99.99
2018-08-27T03:29:37.881Z,99.99
2018-08-27T03:30:38.155Z,99.99
2018-08-27T03:32:21.461Z,99.99
2018-08-27T03:33:21.938Z,99.99
2018-08-27T03:34:21.520Z,99.99
2018-08-27T03:35:21.969Z,99.99
2018-08-27T03:36:21.631Z,99.99
2018-08-27T03:37:22.153Z,99.99
2018-08-27T03:38:43.370Z,99.99
2018-08-27T03:39:43.881Z,99.99
2018-08-27T03:40:43.539Z,99.99
2018-08-27T03:41:43.318Z,99.99
2018-08-27T03:43:06.660Z,99.99
2018-08-27T03:44:07.206Z,99.99
2018-08-27T03:45:06.849Z,99.99
2018-08-27T03:46:07.680Z,99.99
2018-08-27T03:47:07.467Z,99.99
2018-08-27T03:48:28.311Z,99.99
2018-08-27T03:49:50.802Z,99.99
2018-08-27T03:50:51.699Z,99.99
2018-08-27T03:51:51.367Z,99.99
2018-08-27T03:52:50.878Z,99.99
2018-08-27T03:54:33.292Z,99.99
2018-08-27T03:55:55.261Z,99.99
2018-08-27T03:56:55.839Z,99.99
2018-08-27T03:57:55.458Z,99.99
2018-08-27T03:58:56.026Z,99.10
2018-08-27T03:59:55.418Z,98.04
2018-08-27T04:00:56.151Z,96.75
2018-08-27T04:01:55.810Z,95.79
2018-08-27T04:02:55.594Z,94.65
2018-08-27T04:03:55.453Z,93.50
2018-08-27T04:04:56.004Z,91.59
2018-08-27T04:05:55.791Z,89.39
2018-08-27T04:07:16.889Z,86.23
2018-08-27T04:08:39.018Z,84.03
2018-08-27T04:09:39.557Z,83.08
2018-08-27T04:10:39.334Z,82.79
2018-08-27T04:11:39.171Z,81.55
2018-08-27T04:13:00.568Z,80.88
2018-08-27T04:14:00.926Z,80.40
2018-08-27T04:15:00.569Z,81.07
2018-08-27T04:16:22.004Z,80.98
2018-08-27T04:17:22.315Z,81.16
2018-08-27T04:18:22.968Z,80.40
2018-08-27T04:19:22.814Z,79.93
2018-08-27T04:20:22.665Z,81.16
2018-08-27T04:21:22.295Z,81.26
2018-08-27T04:22:22.835Z,81.74
2018-08-27T04:23:22.569Z,81.84
2018-08-27T04:24:43.792Z,80.11
2018-08-27T04:25:44.551Z,80.40
2018-08-27T04:26:44.363Z,79.35
2018-08-27T04:27:44.162Z,79.73
2018-08-27T04:28:44.643Z,78.49
2018-08-27T04:29:44.666Z,78.55
2018-08-27T04:30:44.342Z,77.97
2018-08-27T04:31:44.112Z,79.22
2018-08-27T04:32:44.710Z,78.74
2018-08-27T04:33:44.409Z,79.12
2018-08-27T04:34:44.103Z,79.50
2018-08-27T04:35:43.969Z,79.93
2018-08-27T04:36:44.601Z,80.40
2018-08-27T04:38:27.266Z,81.26
2018-08-27T04:39:52.124Z,81.26
2018-08-27T04:41:13.379Z,81.55
2018-08-27T04:42:13.850Z,82.12
2018-08-27T04:43:13.553Z,81.55
2018-08-27T04:44:56.978Z,81.65
2018-08-27T04:45:57.693Z,81.45
2018-08-27T04:46:57.505Z,81.55
2018-08-27T04:49:20.083Z,82.03
2018-08-27T04:50:21.254Z,82.12
2018-08-27T04:51:20.795Z,81.74
2018-08-27T04:52:20.402Z,81.74
2018-08-27T04:53:20.172Z,82.41
2018-08-27T04:54:20.817Z,81.45
2018-08-27T04:55:20.605Z,82.03
2018-08-27T04:56:20.283Z,81.84
2018-08-27T04:57:20.809Z,81.93
2018-08-27T04:58:20.243Z,82.70
2018-08-27T04:59:21.361Z,82.41
2018-08-27T05:00:42.273Z,82.12
2018-08-27T05:02:06.255Z,82.22
2018-08-27T05:03:07.132Z,81.93
2018-08-27T05:04:06.885Z,81.74
2018-08-27T05:05:06.582Z,82.03
2018-08-27T05:06:06.665Z,81.74
2018-08-27T05:07:06.288Z,81.45
2018-08-27T05:08:28.190Z,81.65
2018-08-27T05:10:33.942Z,80.98
2018-08-27T05:11:34.717Z,81.07
2018-08-27T05:12:34.510Z,80.59
2018-08-27T05:13:34.511Z,80.11
2018-08-27T05:14:34.528Z,79.73
2018-08-27T05:15:34.433Z,79.83
2018-08-27T05:16:34.472Z,79.54
2018-08-27T05:17:33.883Z,79.93
2018-08-27T05:18:34.829Z,79.73
2018-08-27T05:19:34.733Z,79.73
2018-08-27T05:20:34.289Z,78.68
2018-08-27T05:21:35.404Z,77.63
2018-08-27T05:22:34.076Z,76.10
2018-08-27T05:23:35.399Z,74.57
2018-08-27T05:24:34.180Z,72.66
2018-08-27T05:25:34.027Z,71.51
2018-08-27T05:26:34.748Z,71.13
2018-08-27T05:27:34.144Z,69.50
2018-08-27T05:28:34.781Z,68.45
2018-08-27T05:29:34.254Z,66.50
2018-08-27T05:30:34.042Z,64.31
2018-08-27T05:31:34.912Z,62.78
2018-08-27T05:32:55.937Z,59.91
2018-08-27T05:33:57.038Z,59.34
2018-08-27T05:35:18.284Z,57.53
2018-08-27T05:37:01.354Z,54.75
2018-08-27T05:38:02.412Z,53.13
2018-08-27T05:39:02.130Z,51.79
2018-08-27T05:40:01.706Z,50.45
2018-08-27T05:41:02.205Z,48.64
2018-08-27T05:42:02.446Z,47.39
2018-08-27T05:43:02.168Z,45.96
2018-08-27T05:44:02.386Z,43.76
2018-08-27T05:45:23.994Z,41.85
2018-08-27T05:47:07.633Z,38.79
2018-08-27T05:48:07.487Z,37.84
2018-08-27T05:49:29.562Z,36.21
2018-08-27T05:50:30.257Z,35.16
2018-08-27T05:51:30.107Z,34.20
2018-08-27T05:52:29.797Z,33.15
2018-08-27T05:53:29.536Z,32.29
2018-08-27T05:54:52.089Z,31.24
2018-08-27T05:57:42.189Z,28.17
2018-08-27T05:58:43.306Z,26.93
2018-08-27T05:59:43.077Z,25.98
2018-08-27T06:00:42.841Z,25.12
2018-08-27T06:01:43.037Z,24.35
2018-08-27T06:02:43.067Z,23.39
2018-08-27T06:03:42.799Z,23.11
2018-08-27T06:04:42.600Z,22.54
2018-08-27T06:05:42.331Z,22.06
2018-08-27T06:07:05.620Z,21.30
2018-08-27T06:08:06.686Z,21.30
2018-08-27T06:09:06.887Z,20.92
2018-08-27T06:10:05.686Z,20.53
2018-08-27T06:11:27.799Z,20.82
2018-08-27T06:12:28.596Z,20.53
2018-08-27T06:13:28.687Z,20.15
2018-08-27T06:14:28.512Z,19.67
2018-08-27T06:15:29.036Z,19.57
2018-08-27T06:16:28.757Z,19.38
2018-08-27T06:17:28.507Z,19.20
2018-08-27T06:18:30.131Z,19.20
2018-08-27T06:19:49.901Z,19.30
2018-08-27T06:20:51.646Z,19.20
2018-08-27T06:21:51.958Z,19.49
2018-08-27T06:23:12.170Z,19.49
2018-08-27T06:24:13.658Z,19.40
2018-08-27T06:25:51.356Z,19.40
2018-08-27T06:26:52.245Z,19.30
2018-08-27T06:28:13.690Z,19.30
2018-08-27T06:29:14.449Z,19.40
2018-08-27T06:30:43.948Z,19.30
2018-08-27T06:31:44.259Z,18.91
2018-08-27T06:32:40.172Z,18.82
2018-08-27T06:33:40.443Z,19.11
2018-08-27T06:34:40.357Z,19.11
2018-08-27T06:35:42.418Z,19.11
2018-08-27T06:36:40.466Z,19.30
2018-08-27T06:37:40.966Z,19.20
2018-08-27T06:38:41.078Z,19.11
2018-08-27T06:39:41.039Z,18.82
2018-08-27T06:40:40.701Z,18.54
2018-08-27T06:42:04.309Z,18.54
2018-08-27T06:43:05.334Z,18.06
2018-08-27T06:44:05.745Z,17.58
2018-08-27T06:45:51.822Z,17.29
2018-08-27T06:46:52.690Z,17.10
2018-08-27T06:47:52.428Z,16.63
2018-08-27T06:48:52.138Z,16.14
2018-08-27T06:49:53.156Z,15.67
2018-08-27T06:50:52.337Z,15.67
2018-08-27T06:51:51.849Z,15.09
2018-08-27T06:52:53.030Z,15.00
2018-08-27T06:53:52.237Z,14.72
2018-08-27T06:54:51.966Z,14.52
2018-08-27T06:55:52.002Z,14.81
2018-08-27T06:56:51.881Z,15.09
2018-08-27T06:57:51.636Z,14.90
2018-08-27T06:58:52.369Z,15.09
2018-08-27T06:59:52.211Z,15.09
2018-08-27T07:00:51.948Z,15.09
2018-08-27T07:01:52.004Z,15.00
2018-08-27T07:03:14.379Z,15.00
2018-08-27T07:04:15.321Z,15.86
2018-08-27T07:05:14.985Z,16.43
2018-08-27T07:06:15.755Z,16.34
2018-08-27T07:07:38.243Z,16.72
2018-08-27T07:08:38.895Z,16.53
2018-08-27T07:09:38.768Z,16.43
2018-08-27T07:10:38.430Z,16.82
2018-08-27T07:11:38.393Z,17.02
2018-08-27T07:12:39.339Z,17.11
2018-08-27T07:13:38.784Z,17.78
2018-08-27T07:14:39.229Z,17.59
2018-08-27T07:15:40.161Z,17.88
2018-08-27T07:17:23.625Z,19.02
2018-08-27T07:18:24.224Z,18.54
2018-08-27T07:19:24.229Z,18.54
2018-08-27T07:20:24.012Z,18.35
2018-08-27T07:21:23.788Z,18.64
2018-08-27T07:22:24.354Z,18.74
2018-08-27T07:23:23.886Z,18.54
2018-08-27T07:24:24.610Z,18.54
2018-08-27T07:25:24.591Z,18.45
2018-08-27T07:26:24.160Z,18.83
2018-08-27T07:27:24.190Z,19.21
2018-08-27T07:28:23.931Z,19.02
2018-08-27T07:29:45.788Z,19.60
2018-08-27T07:31:08.295Z,19.98
2018-08-27T07:32:08.161Z,19.98
2018-08-27T07:33:30.377Z,19.69
2018-08-27T07:34:30.978Z,19.60
2018-08-27T07:35:52.266Z,20.07
2018-08-27T07:36:52.195Z,20.55
2018-08-27T07:37:52.733Z,21.33
2018-08-27T07:39:36.337Z,22.67
2018-08-27T07:40:36.139Z,22.76
2018-08-27T07:41:37.250Z,23.53
2018-08-27T07:42:36.889Z,24.10
2018-08-27T07:43:36.787Z,24.49
2018-08-27T07:44:58.601Z,25.63
2018-08-27T07:46:00.197Z,26.30
2018-08-27T07:47:00.225Z,27.64
2018-08-27T07:47:59.767Z,28.12
2018-08-27T07:49:23.067Z,29.27
2018-08-27T07:50:22.895Z,28.99
2018-08-27T07:51:22.783Z,29.86
2018-08-27T07:52:23.037Z,29.28
2018-08-27T07:53:22.894Z,29.47
2018-08-27T07:54:22.971Z,30.24
2018-08-27T07:56:05.508Z,30.72
2018-08-27T07:57:06.052Z,30.33
2018-08-27T07:58:05.831Z,30.62
2018-08-27T07:59:06.848Z,31.01
2018-08-27T08:00:06.678Z,33.01
2018-08-27T08:01:06.536Z,33.01
2018-08-27T08:02:06.268Z,32.34
2018-08-27T08:03:06.028Z,32.15
2018-08-27T08:04:06.054Z,32.34
2018-08-27T08:05:27.575Z,33.97
2018-08-27T08:06:28.704Z,34.26
2018-08-27T08:07:27.936Z,34.74
2018-08-27T08:08:27.712Z,35.71
2018-08-27T08:09:27.549Z,36.47
2018-08-27T08:10:49.908Z,38.20
2018-08-27T08:12:12.000Z,37.34
2018-08-27T08:13:12.952Z,36.29
2018-08-27T08:14:12.711Z,37.53
2018-08-27T08:15:12.725Z,38.01
2018-08-27T08:16:12.749Z,37.43
2018-08-27T08:17:12.688Z,38.01
2018-08-27T08:18:12.804Z,37.92
2018-08-27T08:19:12.443Z,38.78
2018-08-27T08:21:18.589Z,40.31
2018-08-27T08:22:19.497Z,40.88
2018-08-27T08:23:41.028Z,43.47
2018-08-27T08:25:46.688Z,44.54
2018-08-27T08:26:46.823Z,46.46
2018-08-27T08:27:46.686Z,46.46
2018-08-27T08:28:46.434Z,46.55
2018-08-27T08:30:09.258Z,48.38
2018-08-27T08:31:09.371Z,49.05
2018-08-27T08:32:09.515Z,48.95
2018-08-27T08:33:10.358Z,53.36
2018-08-27T08:34:09.704Z,53.07
2018-08-27T08:35:09.444Z,52.71
2018-08-27T08:36:09.246Z,53.67
2018-08-27T08:37:09.577Z,55.97
2018-08-27T08:38:09.395Z,55.68
2018-08-27T08:39:09.098Z,54.72
2018-08-27T08:40:54.707Z,56.45
2018-08-27T08:41:55.740Z,59.13
2018-08-27T08:43:17.792Z,60.41
2018-08-27T08:44:39.829Z,62.62
2018-08-27T08:45:40.719Z,64.25
2018-08-27T08:46:40.416Z,62.13
2018-08-27T08:47:40.713Z,62.42
2018-08-27T08:49:02.110Z,64.05
2018-08-27T08:50:03.276Z,63.96
2018-08-27T08:51:02.963Z,66.74
2018-08-27T08:52:02.871Z,65.88
2018-08-27T08:53:02.923Z,68.85
2018-08-27T08:54:02.833Z,69.56
2018-08-27T08:55:02.543Z,73.30
2018-08-27T08:56:46.161Z,74.26
2018-08-27T08:57:47.289Z,75.21
2018-08-27T08:58:46.157Z,77.75
2018-08-27T08:59:47.677Z,80.05
2018-08-27T09:00:46.480Z,82.01
2018-08-27T09:01:46.551Z,85.66
2018-08-27T09:02:46.967Z,86.62
2018-08-27T09:03:46.961Z,87.01
2018-08-27T09:05:11.167Z,86.24
2018-08-27T09:06:12.334Z,85.28
2018-08-27T09:07:11.161Z,87.19
2018-08-27T09:08:12.246Z,86.38
2018-08-27T09:09:32.699Z,86.48
2018-08-27T09:10:33.744Z,86.10
2018-08-27T09:11:55.786Z,84.89
2018-08-27T09:13:17.674Z,87.96
2018-08-27T09:14:17.661Z,89.31
2018-08-27T09:15:18.025Z,92.62
2018-08-27T09:16:39.544Z,93.29
2018-08-27T09:17:40.828Z,94.98
2018-08-27T09:18:39.685Z,96.42
2018-08-27T09:19:40.019Z,96.90
2018-08-27T09:20:44.918Z,98.53
2018-08-27T09:21:40.160Z,98.05
2018-08-27T09:22:40.405Z,98.53
2018-08-27T09:23:40.124Z,98.82
2018-08-27T09:24:40.159Z,99.99
2018-08-27T09:25:40.183Z,99.99
2018-08-27T09:26:40.008Z,99.99
2018-08-27T09:27:39.724Z,99.99
2018-08-27T09:28:39.568Z,99.99
2018-08-27T09:29:39.585Z,99.99
2018-08-27T09:30:39.448Z,99.99
2018-08-27T09:31:40.296Z,99.99
2018-08-27T09:33:02.135Z,99.99
2018-08-27T09:34:02.922Z,99.99
2018-08-27T09:35:03.213Z,99.99
2018-08-27T09:36:02.065Z,99.99
2018-08-27T09:37:24.475Z,99.99
2018-08-27T09:38:24.709Z,99.99
2018-08-27T09:40:08.239Z,99.99
2018-08-27T09:41:09.096Z,99.99
2018-08-27T09:42:09.239Z,99.99
2018-08-27T09:43:09.201Z,99.99
2018-08-27T09:44:08.024Z,99.99
2018-08-27T09:45:30.940Z,99.99
2018-08-27T09:46:31.978Z,99.99
2018-08-27T09:47:31.402Z,99.99
2018-08-27T09:48:31.304Z,99.99
2018-08-27T09:49:32.493Z,99.99
2018-08-27T09:50:31.475Z,99.99
2018-08-27T09:51:32.388Z,99.99
2018-08-27T09:52:31.777Z,99.99
2018-08-27T09:53:32.130Z,99.99
2018-08-27T09:54:31.779Z,99.99
2018-08-27T09:55:31.472Z,99.99
2018-08-27T09:56:31.866Z,98.72
2018-08-27T09:57:32.229Z,98.05
2018-08-27T09:58:30.991Z,96.03
2018-08-27T09:59:32.390Z,93.58
2018-08-27T10:00:54.748Z,93.96
2018-08-27T10:01:55.142Z,90.89
2018-08-27T10:02:54.390Z,90.08
2018-08-27T10:04:16.516Z,86.62
2018-08-27T10:05:16.516Z,84.41
2018-08-27T10:06:16.463Z,82.30
2018-08-27T10:07:16.858Z,81.72
2018-08-27T10:08:17.645Z,80.47
2018-08-27T10:09:16.580Z,76.82
2018-08-27T10:10:17.888Z,77.98
2018-08-27T10:11:17.849Z,76.15
2018-08-27T10:12:18.106Z,79.09
2018-08-27T10:13:17.755Z,75.54
2018-08-27T10:15:02.183Z,75.45
2018-08-27T10:16:04.012Z,73.33
2018-08-27T10:17:03.178Z,74.10
2018-08-27T10:18:03.242Z,74.29
2018-08-27T10:19:02.538Z,75.35
2018-08-27T10:20:03.494Z,74.81
2018-08-27T10:21:47.870Z,78.17
2018-08-27T10:22:47.867Z,78.45
2018-08-27T10:23:48.073Z,77.69
2018-08-27T10:24:48.317Z,76.34
2018-08-27T10:25:47.210Z,76.82
2018-08-27T10:26:48.555Z,75.20
2018-08-27T10:28:53.581Z,77.40
2018-08-27T10:29:56.317Z,79.13
2018-08-27T10:30:55.597Z,77.31
2018-08-27T10:31:55.317Z,79.99
2018-08-27T10:32:54.841Z,80.66
2018-08-27T10:33:55.259Z,81.09
2018-08-27T10:34:54.868Z,80.04
2018-08-27T10:36:16.092Z,80.13
2018-08-27T10:37:39.616Z,78.88
2018-08-27T10:38:40.396Z,83.11
2018-08-27T10:39:39.304Z,84.26
2018-08-27T10:40:39.279Z,82.82
2018-08-27T10:42:01.057Z,83.01
2018-08-27T10:43:45.233Z,84.45
2018-08-27T10:45:07.472Z,83.59
2018-08-27T10:46:07.331Z,84.64
2018-08-27T10:47:51.617Z,84.26
2018-08-27T10:48:52.665Z,85.22
2018-08-27T10:50:13.342Z,83.59
2018-08-27T10:51:13.592Z,86.76
2018-08-27T10:52:13.524Z,85.71
2018-08-27T10:53:13.523Z,87.24
2018-08-27T10:54:13.709Z,84.45
2018-08-27T10:55:13.546Z,83.69
2018-08-27T10:56:13.436Z,84.64
2018-08-27T10:57:13.654Z,80.57
2018-08-27T10:58:13.754Z,78.36
2018-08-27T10:59:14.128Z,73.27
2018-08-27T11:00:14.706Z,70.78
2018-08-27T11:01:13.789Z,68.28
2018-08-27T11:02:35.848Z,62.90
2018-08-27T11:03:36.468Z,65.49
2018-08-27T11:04:36.723Z,62.90
2018-08-27T11:05:36.783Z,59.44
2018-08-27T11:06:35.989Z,55.41
2018-08-27T11:07:58.474Z,57.93
2018-08-27T11:09:45.381Z,60.82
2018-08-27T11:12:13.841Z,66.49
2018-08-27T11:13:14.003Z,68.21
2018-08-27T11:14:14.217Z,66.04
2018-08-27T11:15:14.292Z,64.02
2018-08-27T11:16:14.594Z,69.34
2018-08-27T11:17:13.969Z,80.50
2018-08-27T11:18:14.003Z,80.30
2018-08-27T11:19:14.080Z,73.99
2018-08-27T11:20:14.406Z,78.85
2018-08-27T11:21:36.662Z,98.63
2018-08-27T11:22:37.016Z,95.21
2018-08-27T11:23:37.015Z,97.19
2018-08-27T11:24:58.312Z,99.84
2018-08-27T11:25:59.211Z,99.99
2018-08-27T11:26:59.311Z,99.99
2018-08-27T11:27:59.091Z,99.99
2018-08-27T11:28:58.993Z,99.99
2018-08-27T11:29:58.907Z,99.99
2018-08-27T11:30:59.035Z,99.99
2018-08-27T11:31:59.921Z,99.99
2018-08-27T11:32:59.121Z,99.99
2018-08-27T11:33:58.968Z,99.99
2018-08-27T11:34:58.863Z,99.99
2018-08-27T11:35:59.830Z,99.99
2018-08-27T11:36:58.730Z,99.99
2018-08-27T11:37:58.740Z,99.99
2018-08-27T11:39:19.947Z,99.99
2018-08-27T11:40:20.992Z,99.99
2018-08-27T11:41:21.233Z,99.99
2018-08-27T11:42:41.848Z,99.99
2018-08-27T11:43:42.303Z,99.74
2018-08-27T11:44:43.407Z,99.99
2018-08-27T11:46:25.569Z,99.99
2018-08-27T11:47:26.633Z,99.99
2018-08-27T11:48:25.647Z,99.99
2018-08-27T11:49:25.553Z,99.99
2018-08-27T11:50:25.563Z,99.99
2018-08-27T11:51:26.400Z,99.99
2018-08-27T11:52:26.461Z,99.99
2018-08-27T11:53:25.655Z,99.99
2018-08-27T11:54:26.046Z,99.99
2018-08-27T11:55:48.377Z,99.99
2018-08-27T11:56:50.019Z,99.99
2018-08-27T11:58:10.641Z,99.99
2018-08-27T11:59:11.515Z,99.99
2018-08-27T12:00:34.204Z,99.99
2018-08-27T12:01:34.250Z,99.99
2018-08-27T12:02:57.681Z,99.99
2018-08-27T12:03:57.770Z,99.99
2018-08-27T12:04:58.133Z,99.99
2018-08-27T12:05:57.946Z,99.99
2018-08-27T12:06:57.915Z,99.99
2018-08-27T12:07:58.360Z,99.99
2018-08-27T12:09:20.323Z,99.99
2018-08-27T12:10:20.528Z,99.99
2018-08-27T12:11:20.603Z,99.99
2018-08-27T12:12:20.877Z,99.99
2018-08-27T12:13:22.250Z,99.99
2018-08-27T12:14:20.214Z,99.99
2018-08-27T12:16:03.899Z,99.99
2018-08-27T12:17:04.728Z,99.99
2018-08-27T12:18:04.598Z,99.99
2018-08-27T12:19:04.635Z,99.99
2018-08-27T12:20:04.798Z,99.99
2018-08-27T12:21:05.158Z,99.99
2018-08-27T12:22:26.060Z,99.99
2018-08-27T12:23:27.162Z,99.99
2018-08-27T12:24:48.840Z,99.99
2018-08-27T12:25:48.985Z,99.99
2018-08-27T12:26:49.638Z,99.99
2018-08-27T12:27:49.825Z,99.99
2018-08-27T12:28:49.445Z,99.99
2018-08-27T12:30:11.549Z,99.99
2018-08-27T12:31:11.484Z,99.99
2018-08-27T12:32:11.662Z,99.99
2018-08-27T12:33:34.267Z,99.99
2018-08-27T12:34:34.319Z,99.99
2018-08-27T12:35:56.263Z,99.99
2018-08-27T12:38:02.237Z,99.99
2018-08-27T12:39:26.992Z,99.99
2018-08-27T12:40:27.464Z,99.99
2018-08-27T12:42:36.276Z,99.99
2018-08-27T12:43:59.056Z,99.99
2018-08-27T12:45:00.042Z,99.99
2018-08-27T12:46:00.322Z,99.99
2018-08-27T12:46:59.381Z,99.99
2018-08-27T12:47:59.395Z,99.99
2018-08-27T12:48:59.760Z,99.99
2018-08-27T12:49:59.870Z,99.99
2018-08-27T12:51:21.572Z,99.99
2018-08-27T12:52:21.763Z,99.99
2018-08-27T12:53:43.098Z,99.99
2018-08-27T12:54:43.794Z,99.99
2018-08-27T12:55:43.904Z,99.99
2018-08-27T12:56:43.882Z,99.99
2018-08-27T12:57:43.671Z,99.99
2018-08-27T12:58:43.843Z,99.99
2018-08-27T12:59:43.644Z,99.99
2018-08-27T13:00:43.689Z,99.99
2018-08-27T13:01:43.559Z,99.99
2018-08-27T13:02:43.547Z,99.99
2018-08-27T13:03:43.602Z,99.99
2018-08-27T13:06:33.697Z,99.99
2018-08-27T13:07:35.033Z,99.68
2018-08-27T13:08:35.260Z,99.99
2018-08-27T13:09:34.361Z,99.59
2018-08-27T13:10:34.223Z,97.86
2018-08-27T13:11:34.552Z,99.06
2018-08-27T13:12:34.641Z,99.98
2018-08-27T13:13:33.852Z,99.99
2018-08-27T13:14:56.564Z,99.99
2018-08-27T13:15:57.006Z,99.99
2018-08-27T13:16:57.442Z,99.99
2018-08-27T13:18:41.037Z,99.99
2018-08-27T13:19:40.984Z,99.99
2018-08-27T13:20:41.583Z,99.99
2018-08-27T13:22:03.776Z,99.99
2018-08-27T13:23:04.093Z,99.99
2018-08-27T13:24:27.420Z,99.99
2018-08-27T13:25:27.529Z,99.99
2018-08-27T13:27:11.901Z,99.99
2018-08-27T13:28:12.814Z,99.99
2018-08-27T13:29:12.652Z,99.99
2018-08-27T13:30:34.367Z,99.99
2018-08-27T13:31:34.787Z,99.99
2018-08-27T13:33:19.379Z,99.99
2018-08-27T13:34:20.860Z,99.99
2018-08-27T13:35:20.653Z,99.99
2018-08-27T13:36:41.499Z,99.99
2018-08-27T13:37:42.501Z,99.99
2018-08-27T13:38:41.910Z,99.99
2018-08-27T13:40:03.643Z,99.99
2018-08-27T13:41:03.857Z,99.99
2018-08-27T13:42:48.259Z,99.99
2018-08-27T13:43:49.146Z,99.99
2018-08-27T13:44:49.134Z,99.99
2018-08-27T13:46:10.904Z,99.99
2018-08-27T13:47:11.740Z,99.99
2018-08-27T13:48:37.400Z,98.25
2018-08-27T13:49:36.405Z,98.73
2018-08-27T13:50:58.326Z,98.92
2018-08-27T13:51:58.554Z,99.60
2018-08-27T13:52:58.743Z,99.74
2018-08-27T13:53:58.793Z,99.84
2018-08-27T13:54:59.407Z,99.99
2018-08-27T13:55:58.329Z,99.98
2018-08-27T13:56:58.343Z,98.83
2018-08-27T13:57:58.422Z,99.40
2018-08-27T13:58:59.522Z,98.97
2018-08-27T13:59:58.527Z,98.97
2018-08-27T14:00:59.114Z,99.26
2018-08-27T14:01:59.316Z,97.72
2018-08-27T14:02:58.328Z,96.94
2018-08-27T14:03:58.265Z,96.99
2018-08-27T14:04:58.055Z,97.86
2018-08-27T14:06:22.707Z,99.26
2018-08-27T14:07:21.823Z,99.99
2018-08-27T14:08:21.794Z,99.99
2018-08-27T14:09:21.909Z,99.99
2018-08-27T14:10:21.982Z,99.99
2018-08-27T14:11:22.031Z,99.99
2018-08-27T14:12:22.806Z,99.99
2018-08-27T14:13:22.601Z,99.99
2018-08-27T14:14:21.597Z,99.99
2018-08-27T14:15:22.054Z,99.99
2018-08-27T14:16:21.650Z,99.99
2018-08-27T14:17:23.155Z,99.99
2018-08-27T14:18:44.718Z,99.99
2018-08-27T14:19:44.035Z,99.99